Time;durP1;ratioP1;P1;durP2;ratioP2;P2;SDS_P1;SDS_P2;PMS_P1;PMS_P2;Temp;Humidity;BMP_temperature;BMP_pressure;BME280_temperature;BME280_humidity;BME280_pressure;Samples;Min_cycle;Max_cycle;Signal;HPM_P1;HPM_P2
2022/08/28 00:02:05;;;;;;;;;20.75;13.50;;;;;26.10;100.00;101406.09;5079757;27;51199;-90
2022/08/28 00:04:50;;;;;;;;;9.25;4.50;;;;;25.88;100.00;101375.56;5084282;27;50879;-91
2022/08/28 00:07:38;;;;;;;;;16.75;11.50;;;;;25.83;100.00;101354.91;5086668;27;51448;-91
2022/08/28 00:10:25;;;;;;;;;10.50;9.50;;;;;26.07;100.00;101389.03;5086314;27;51552;-91
2022/08/28 00:13:17;;;;;;;;;20.00;13.50;;;;;26.08;100.00;101386.19;5094075;27;50940;-91
2022/08/28 00:16:02;;;;;;;;;20.50;14.00;;;;;26.09;100.00;101393.44;5078440;27;50993;-91
2022/08/28 00:18:47;;;;;;;;;16.25;12.50;;;;;26.09;100.00;101389.78;5084060;27;50697;-92
2022/08/28 00:21:32;;;;;;;;;18.50;12.25;;;;;26.06;100.00;101385.41;5083836;27;50545;-91
2022/08/28 00:24:17;;;;;;;;;15.50;13.00;;;;;26.07;100.00;101378.09;5086175;27;51350;-91
2022/08/28 00:30:09;;;;;;;;;15.50;12.25;;;;;25.44;100.00;101269.06;5095117;27;51149;-91
2022/08/28 00:32:57;;;;;;;;;15.25;12.00;;;;;26.08;100.00;101369.81;5087874;27;51030;-91
2022/08/28 00:35:44;;;;;;;;;16.75;12.50;;;;;26.14;100.00;101374.94;5080222;27;50939;-91
2022/08/28 00:38:30;;;;;;;;;9.50;5.25;;;;;26.12;100.00;101370.56;5076636;27;51128;-91
2022/08/28 00:41:16;;;;;;;;;23.50;17.50;;;;;25.99;100.00;101346.69;5090570;27;51172;-91
2022/08/28 00:44:16;;;;;;;;;17.75;14.25;;;;;25.90;100.00;101339.06;5077254;27;51482;-91
2022/08/28 00:47:00;;;;;;;;;14.25;12.00;;;;;25.98;100.00;101360.44;5076997;27;50939;-91
2022/08/28 00:49:49;;;;;;;;;22.00;14.00;;;;;26.03;100.00;101363.78;5075412;27;51164;-90
2022/08/28 00:52:37;;;;;;;;;18.50;13.50;;;;;26.02;100.00;101359.28;5077958;27;51276;-91
2022/08/28 00:55:25;;;;;;;;;16.00;12.75;;;;;26.03;100.00;101358.34;5088053;27;50961;-90
2022/08/28 01:01:43;;;;;;;;;;;;;;;;;;;;;
2022/08/28 01:04:57;;;;;;;;;;;;;;;;;;;;;
2022/08/28 01:07:50;;;;;;;;;12.25;9.75;;;;;26.03;100.00;101330.16;5100804;22;50549;-58
2022/08/28 01:10:34;;;;;;;;;17.00;16.00;;;;;26.01;100.00;101321.19;5036277;28;51507;-58
2022/08/28 01:13:20;;;;;;;;;15.25;12.75;;;;;25.95;100.00;101317.88;5035862;28;51227;-58
2022/08/28 01:16:05;;;;;;;;;17.25;11.75;;;;;25.99;100.00;101324.88;5037304;28;51355;-59
2022/08/28 01:18:51;;;;;;;;;13.00;11.00;;;;;25.98;100.00;101319.53;5036052;28;51195;-58
2022/08/28 01:21:44;;;;;;;;;11.75;11.00;;;;;25.97;100.00;101313.22;5038318;28;51103;-58
2022/08/28 01:24:30;;;;;;;;;17.25;12.50;;;;;25.99;100.00;101319.44;5038007;28;51476;-58
2022/08/28 01:27:15;;;;;;;;;18.25;11.50;;;;;25.95;100.00;101296.06;5037419;28;51582;-58
2022/08/28 01:29:59;;;;;;;;;15.00;12.00;;;;;25.93;100.00;101287.09;5036489;28;51502;-58
2022/08/28 01:32:47;;;;;;;;;10.50;10.00;;;;;25.95;100.00;101293.34;5037874;28;51131;-58
2022/08/28 01:35:35;;;;;;;;;16.75;12.00;;;;;25.94;100.00;101286.13;5037877;28;51237;-58
2022/08/28 01:38:20;;;;;;;;;16.00;11.50;;;;;25.96;100.00;101281.47;5036286;28;51272;-58
2022/08/28 01:41:04;;;;;;;;;23.00;15.25;;;;;25.99;100.00;101283.13;5038194;28;51079;-59
2022/08/28 01:43:49;;;;;;;;;16.50;13.25;;;;;25.99;100.00;101278.53;5039333;28;51104;-58
2022/08/28 01:46:34;;;;;;;;;13.25;9.25;;;;;25.99;100.00;101278.53;5039236;28;51149;-58
2022/08/28 01:49:20;;;;;;;;;19.00;13.00;;;;;25.97;100.00;101276.88;5038662;28;51628;-58
2022/08/28 01:52:04;;;;;;;;;18.50;15.75;;;;;25.93;100.00;101267.13;5039432;28;51433;-58
2022/08/28 01:54:49;;;;;;;;;18.00;11.50;;;;;25.96;100.00;101264.22;5039268;28;51069;-58
2022/08/28 01:57:34;;;;;;;;;18.25;13.50;;;;;25.99;100.00;101264.91;5039296;28;51045;-58
2022/08/28 02:00:20;;;;;;;;;18.25;15.25;;;;;26.02;100.00;101266.59;5040418;28;51236;-58
2022/08/28 02:03:05;;;;;;;;;23.75;15.00;;;;;26.03;100.00;101265.63;5043102;28;51209;-58
2022/08/28 02:05:50;;;;;;;;;14.00;13.00;;;;;26.05;100.00;101268.25;5043112;28;51395;-58
2022/08/28 02:08:35;;;;;;;;;17.25;12.25;;;;;26.02;100.00;101261.13;5042534;28;51128;-58
2022/08/28 02:11:24;;;;;;;;;12.00;10.25;;;;;26.01;100.00;101264.81;5043353;28;51031;-58
2022/08/28 02:14:09;;;;;;;;;17.50;13.50;;;;;25.99;100.00;101273.06;5038093;28;51425;-59
2022/08/28 02:16:54;;;;;;;;;18.00;13.50;;;;;26.02;100.00;101263.84;5041462;28;51518;-59
2022/08/28 02:19:39;;;;;;;;;18.50;12.50;;;;;26.00;100.00;101268.53;5042677;28;51100;-59
2022/08/28 02:22:24;;;;;;;;;20.25;13.50;;;;;26.05;100.00;101269.09;5042931;28;51056;-58
2022/08/28 02:25:09;;;;;;;;;18.50;15.25;;;;;26.07;100.00;101263.56;5042658;28;51542;-58
2022/08/28 02:27:53;;;;;;;;;19.00;12.75;;;;;26.07;100.00;101267.16;5042722;28;51121;-58
2022/08/28 02:30:39;;;;;;;;;15.75;12.75;;;;;26.10;100.00;101268.84;5042646;28;52771;-58
2022/08/28 02:33:23;;;;;;;;;21.75;12.75;;;;;26.10;100.00;101266.13;5042573;28;51135;-59
2022/08/28 02:36:10;;;;;;;;;18.00;13.25;;;;;26.05;100.00;101258.19;5042810;28;51116;-58
2022/08/28 02:38:55;;;;;;;;;19.75;14.25;;;;;26.09;100.00;101261.59;5041585;28;51427;-58
2022/08/28 02:41:40;;;;;;;;;20.00;14.50;;;;;26.10;100.00;101257.94;5042278;28;51437;-59
2022/08/28 02:44:24;;;;;;;;;19.50;12.75;;;;;26.08;100.00;101255.28;5042381;28;51140;-58
2022/08/28 02:47:08;;;;;;;;;14.75;11.50;;;;;26.08;100.00;101259.88;5042443;28;51184;-57
2022/08/28 02:49:53;;;;;;;;;19.00;11.50;;;;;26.08;100.00;101260.75;5042054;28;51501;-58
2022/08/28 02:52:38;;;;;;;;;17.50;12.50;;;;;26.03;100.00;101251.97;5042285;28;51243;-58
2022/08/28 02:55:24;;;;;;;;;19.25;15.00;;;;;26.04;100.00;101255.56;5042094;28;51574;-58
2022/08/28 02:58:09;;;;;;;;;18.00;12.00;;;;;26.09;100.00;101261.59;5041897;28;51020;-57
2022/08/28 03:00:53;;;;;;;;;14.50;12.50;;;;;26.04;100.00;101261.88;5042013;28;51099;-57
2022/08/28 03:03:39;;;;;;;;;18.25;13.25;;;;;26.06;100.00;101268.13;5042202;28;51167;-58
2022/08/28 03:06:24;;;;;;;;;21.25;14.50;;;;;26.07;100.00;101261.72;5042130;28;51371;-58
2022/08/28 03:09:08;;;;;;;;;21.25;11.75;;;;;26.08;100.00;101265.34;5041567;28;51124;-59
2022/08/28 03:11:53;;;;;;;;;18.75;13.25;;;;;26.06;100.00;101262.69;5041669;28;51283;-58
2022/08/28 03:14:38;;;;;;;;;17.25;13.00;;;;;26.06;100.00;101262.69;5041799;28;51164;-58
2022/08/28 03:17:23;;;;;;;;;18.50;13.25;;;;;26.02;100.00;101258.41;5041685;28;51072;-58
2022/08/28 03:20:09;;;;;;;;;18.00;11.50;;;;;26.04;100.00;101264.63;5041671;28;51516;-60
2022/08/28 03:26:01;;;;;;;;;17.75;14.75;;;;;25.95;100.00;101257.00;5041252;28;51400;-58
2022/08/28 03:28:49;;;;;;;;;27.75;20.50;;;;;26.00;100.00;101265.78;5041617;28;51103;-58
2022/08/28 03:31:35;;;;;;;;;22.75;17.25;;;;;25.99;100.00;101261.31;5041518;28;51160;-58
2022/08/28 03:34:19;;;;;;;;;23.50;17.75;;;;;25.99;100.00;101258.59;5041127;28;51119;-58
2022/08/28 03:37:04;;;;;;;;;20.50;14.75;;;;;26.03;100.00;101267.44;5041438;28;51017;-59
2022/08/28 03:39:48;;;;;;;;;16.00;13.50;;;;;26.01;100.00;101264.81;5041182;28;51399;-58
2022/08/28 03:42:34;;;;;;;;;19.75;13.75;;;;;26.05;100.00;101266.38;5041236;28;51414;-58
2022/08/28 03:45:18;;;;;;;;;17.50;16.00;;;;;26.01;100.00;101264.81;5041189;28;51747;-58
2022/08/28 03:48:03;;;;;;;;;19.25;14.75;;;;;26.03;100.00;101272.91;5040933;28;51096;-58
2022/08/28 03:50:47;;;;;;;;;19.25;14.50;;;;;26.01;100.00;101281.19;5041316;28;51337;-58
2022/08/28 03:53:32;;;;;;;;;13.50;11.75;;;;;26.01;100.00;101272.13;5040867;28;51085;-58
2022/08/28 03:56:21;;;;;;;;;13.00;12.75;;;;;25.97;100.00;101274.16;5040954;28;51068;-57
2022/08/28 03:59:05;;;;;;;;;19.75;13.25;;;;;26.02;100.00;101282.06;5037751;28;51045;-58
2022/08/28 04:01:50;;;;;;;;;22.00;14.00;;;;;26.01;100.00;101278.47;5041145;28;51087;-57
2022/08/28 04:04:35;;;;;;;;;14.75;12.50;;;;;25.99;100.00;101272.22;5040689;28;51590;-59
2022/08/28 04:07:21;;;;;;;;;18.00;14.50;;;;;25.97;100.00;101285.94;5041007;28;51178;-58
2022/08/28 04:10:07;;;;;;;;;17.75;13.50;;;;;25.91;100.00;101274.53;5040728;28;51161;-59
2022/08/28 04:12:52;;;;;;;;;19.00;13.25;;;;;25.92;100.00;101290.78;5040556;28;51166;-60
2022/08/28 04:15:36;;;;;;;;;15.75;13.50;;;;;25.96;100.00;101288.75;5040457;28;51167;-59
2022/08/28 04:18:21;;;;;;;;;17.25;10.50;;;;;26.00;100.00;101279.44;5040134;28;51077;-58
2022/08/28 04:21:08;;;;;;;;;20.25;15.25;;;;;26.01;100.00;101286.63;5040682;28;51156;-58
2022/08/28 04:23:53;;;;;;;;;15.25;10.75;;;;;26.00;100.00;101271.25;5040097;28;51070;-59
2022/08/28 04:26:39;;;;;;;;;16.75;12.75;;;;;25.98;100.00;101271.31;5040683;28;51238;-59
2022/08/28 04:29:23;;;;;;;;;16.00;12.50;;;;;25.98;100.00;101274.03;5036035;28;51524;-58
2022/08/28 04:32:07;;;;;;;;;14.50;14.50;;;;;25.99;100.00;101274.94;5039414;28;51033;-57
2022/08/28 04:34:52;;;;;;;;;14.75;12.25;;;;;25.98;100.00;101270.47;5038655;28;51173;-58
2022/08/28 04:37:37;;;;;;;;;15.50;12.50;;;;;25.98;100.00;101271.31;5039958;28;51123;-59
2022/08/28 04:40:23;;;;;;;;;17.00;10.75;;;;;25.99;100.00;101277.66;5040482;28;51159;-58
2022/08/28 04:43:07;;;;;;;;;20.75;14.75;;;;;25.97;100.00;101266.88;5040365;28;51093;-58
2022/08/28 04:45:52;;;;;;;;;18.25;13.00;;;;;25.95;100.00;101271.53;5040138;28;51467;-58
2022/08/28 04:48:37;;;;;;;;;16.25;12.25;;;;;25.93;100.00;101267.13;5036531;28;51072;-58
2022/08/28 04:51:22;;;;;;;;;15.25;10.50;;;;;25.94;100.00;101274.31;5040317;28;51095;-58
2022/08/28 04:54:09;;;;;;;;;15.00;14.00;;;;;25.94;100.00;101272.50;5039871;28;51432;-58
2022/08/28 04:56:54;;;;;;;;;21.00;15.25;;;;;25.95;100.00;101279.72;5039943;28;51157;-58
2022/08/28 04:59:40;;;;;;;;;20.75;12.00;;;;;25.94;100.00;101283.41;5040045;28;51473;-59
2022/08/28 05:02:25;;;;;;;;;14.50;12.25;;;;;25.90;100.00;101268.19;5039993;28;50996;-60
2022/08/28 05:05:10;;;;;;;;;12.50;12.00;;;;;25.95;100.00;101281.53;5037454;28;51263;-59
2022/08/28 05:07:55;;;;;;;;;13.75;10.00;;;;;25.88;100.00;101269.25;5039239;28;51151;-58
2022/08/28 05:10:40;;;;;;;;;15.50;13.75;;;;;25.93;100.00;101294.38;5039623;28;51263;-58
2022/08/28 05:13:26;;;;;;;;;17.50;14.25;;;;;25.94;100.00;101299.75;5039616;28;51156;-58
2022/08/28 05:16:10;;;;;;;;;15.25;12.75;;;;;25.96;100.00;101302.38;5039763;28;51212;-58
2022/08/28 05:18:59;;;;;;;;;14.00;9.75;;;;;25.90;100.00;101290.00;5039451;28;51476;-58
2022/08/28 05:21:43;;;;;;;;;16.00;12.25;;;;;25.94;100.00;101293.41;5039615;28;51062;-58
2022/08/28 05:24:28;;;;;;;;;16.75;12.50;;;;;25.95;100.00;101300.63;5039971;28;51593;-59
2022/08/28 05:27:12;;;;;;;;;20.50;13.50;;;;;25.91;100.00;101297.22;5039445;28;51239;-58
2022/08/28 05:29:57;;;;;;;;;20.50;14.25;;;;;25.87;100.00;101300.22;5039238;28;51500;-58
2022/08/28 05:32:42;;;;;;;;;15.50;12.00;;;;;25.86;100.00;101303.91;5039606;28;51182;-58
2022/08/28 05:35:27;;;;;;;;;18.50;11.75;;;;;25.82;100.00;101303.22;5043943;28;51460;-58
2022/08/28 05:38:13;;;;;;;;;14.75;12.25;;;;;25.78;100.00;101296.16;5043102;28;51175;-59
2022/08/28 05:40:58;;;;;;;;;23.00;14.50;;;;;25.69;100.00;101281.25;5044012;28;51042;-59
2022/08/28 05:43:42;;;;;;;;;15.25;13.00;;;;;25.74;100.00;101295.47;5043424;28;51164;-58
2022/08/28 05:46:28;;;;;;;;;17.25;13.00;;;;;25.77;100.00;101305.31;5043734;28;51097;-58
2022/08/28 05:49:13;;;;;;;;;20.50;12.50;;;;;25.82;100.00;101306.81;5042230;28;51204;-58
2022/08/28 05:51:57;;;;;;;;;15.25;11.50;;;;;25.84;100.00;101312.19;5043663;28;51071;-58
2022/08/28 05:54:42;;;;;;;;;17.50;13.00;;;;;25.82;100.00;101309.53;5043283;28;51104;-58
2022/08/28 05:57:28;;;;;;;;;18.00;11.00;;;;;25.82;100.00;101314.13;5043189;28;51543;-58
2022/08/28 06:00:13;;;;;;;;;13.00;8.00;;;;;25.82;100.00;101308.66;5043144;28;51520;-59
2022/08/28 06:02:58;;;;;;;;;19.00;14.25;;;;;25.84;100.00;101312.19;5042919;28;51127;-57
2022/08/28 06:05:42;;;;;;;;;24.00;19.00;;;;;25.90;100.00;101309.06;5043357;28;51113;-58
2022/08/28 06:08:28;;;;;;;;;17.75;14.25;;;;;26.02;100.00;101309.31;5042610;28;51332;-58
2022/08/28 06:11:13;;;;;;;;;17.25;11.75;;;;;26.19;100.00;101309.19;5039409;28;51178;-58
2022/08/28 06:14:03;;;;;;;;;17.00;13.00;;;;;26.29;100.00;101304.97;5043208;28;51423;-58
2022/08/28 06:16:51;;;;;;;;;25.50;20.50;;;;;26.26;100.00;101313.34;5043269;28;51264;-58
2022/08/28 06:19:36;;;;;;;;;23.00;19.00;;;;;26.23;100.00;101320.84;5042466;28;51072;-59
2022/08/28 06:22:20;;;;;;;;;17.75;15.50;;;;;26.24;100.00;101319.88;5042891;28;51179;-58
2022/08/28 06:25:06;;;;;;;;;16.00;12.75;;;;;26.22;100.00;101311.75;5042828;28;51228;-58
2022/08/28 06:27:50;;;;;;;;;15.50;9.75;;;;;26.28;100.00;101325.03;5042838;28;51228;-58
2022/08/28 06:30:36;;;;;;;;;18.00;14.00;;;;;26.34;100.00;101321.06;5042813;28;51179;-59
2022/08/28 06:33:21;;;;;;;;;14.00;13.75;;;;;26.38;100.00;101328.06;5042542;28;51103;-58
2022/08/28 06:36:06;;;;;;;;;19.25;15.50;;;;;26.38;100.00;101332.66;5042498;28;51088;-58
2022/08/28 06:38:51;;;;;;;;;14.25;11.25;;;;;26.42;100.00;101326.91;5042326;28;51337;-58
2022/08/28 06:41:39;;;;;;;;;10.75;10.75;;;;;26.49;100.00;101348.34;5041373;28;51130;-58
2022/08/28 06:44:24;;;;;;;;;13.00;11.75;;;;;26.55;100.00;101348.84;5042135;28;51518;-58
2022/08/28 06:47:09;;;;;;;;;15.25;11.50;;;;;26.80;100.00;101360.13;5041780;28;51128;-58
2022/08/28 06:49:54;;;;;;;;;15.50;13.50;;;;;27.20;100.00;101361.22;5042165;28;51078;-58
2022/08/28 06:52:38;;;;;;;;;17.50;13.00;;;;;27.47;100.00;101354.97;5041619;28;51170;-59
2022/08/28 06:55:23;;;;;;;;;17.50;11.75;;;;;27.86;100.00;101367.97;5042368;28;51121;-58
2022/08/28 06:58:08;;;;;;;;;19.25;13.75;;;;;28.03;100.00;101372.31;5042014;28;51029;-59
2022/08/28 07:01:27;;;;;;;;;9.75;9.75;;;;;27.98;100.00;101378.09;5042021;28;51175;-59
2022/08/28 07:04:13;;;;;;;;;10.00;10.00;;;;;27.84;100.00;101377.16;5009380;28;51504;-59
2022/08/28 07:06:57;;;;;;;;;17.50;12.25;;;;;27.84;100.00;101387.19;5042075;28;51215;-58
2022/08/28 07:09:42;;;;;;;;;15.50;11.50;;;;;27.92;100.00;101393.06;5041677;28;51210;-58
2022/08/28 07:12:26;;;;;;;;;18.75;13.50;;;;;28.04;100.00;101398.69;5042007;28;51049;-58
2022/08/28 07:15:11;;;;;;;;;19.25;15.00;;;;;28.33;100.00;101406.78;5042282;28;51348;-60
2022/08/28 07:17:55;;;;;;;;;16.00;12.25;;;;;28.68;100.00;101407.09;5041215;28;51178;-58
2022/08/28 07:20:40;;;;;;;;;17.00;13.75;;;;;28.85;100.00;101405.94;5041905;28;51033;-58
2022/08/28 07:23:25;;;;;;;;;14.00;11.50;;;;;28.83;100.00;101418.84;5041607;28;51508;-58
2022/08/28 07:26:13;;;;;;;;;14.00;13.75;;;;;28.89;100.00;101421.13;5041524;28;51226;-58
2022/08/28 07:28:58;;;;;;;;;16.75;12.75;;;;;28.78;100.00;101426.53;5041546;28;51132;-59
2022/08/28 07:31:47;;;;;;;;;14.75;11.25;;;;;28.54;100.00;101442.75;5037312;28;51260;-59
2022/08/28 07:34:37;;;;;;;;;15.25;12.50;;;;;28.29;100.00;101438.97;5037268;28;51191;-57
2022/08/28 07:37:22;;;;;;;;;17.25;13.50;;;;;28.06;100.00;101463.25;5039716;28;51159;-58
2022/08/28 07:40:08;;;;;;;;;15.25;11.00;;;;;27.92;100.00;101464.16;5040146;28;51712;-58
2022/08/28 07:45:58;;;;;;;;;20.50;12.00;;;;;27.77;100.00;101473.34;5039534;28;51013;-58
2022/08/28 07:48:43;;;;;;;;;17.75;12.75;;;;;27.74;100.00;101479.91;5040012;28;51168;-57
2022/08/28 07:51:28;;;;;;;;;18.75;13.50;;;;;27.70;100.00;101485.66;5039977;28;51288;-59
2022/08/28 07:54:12;;;;;;;;;15.25;11.00;;;;;27.70;100.00;101494.75;5039528;28;51193;-58
2022/08/28 07:56:57;;;;;;;;;14.25;12.25;;;;;27.74;100.00;101498.16;5038716;28;51099;-58
2022/08/28 07:59:41;;;;;;;;;10.00;10.00;;;;;27.89;100.00;101502.63;5038395;28;51393;-57
2022/08/28 08:02:26;;;;;;;;;15.50;11.25;;;;;28.00;100.00;101501.91;5038502;28;51151;-58
2022/08/28 08:05:11;;;;;;;;;19.00;12.75;;;;;28.08;100.00;101496.00;5039364;28;51429;-57
2022/08/28 08:07:55;;;;;;;;;16.25;12.50;;;;;28.14;100.00;101506.53;5039306;28;51216;-58
2022/08/28 08:10:40;;;;;;;;;15.00;15.00;;;;;28.15;100.00;101497.31;5040955;28;51163;-58
2022/08/28 08:13:24;;;;;;;;;17.00;15.25;;;;;28.24;100.00;101499.47;5040462;28;51411;-58
2022/08/28 08:16:13;;;;;;;;;14.25;11.75;;;;;28.24;100.00;101498.59;5040656;28;51186;-57
2022/08/28 08:18:57;;;;;;;;;23.00;14.75;;;;;28.22;100.00;101514.22;5038955;28;51130;-57
2022/08/28 08:21:45;;;;;;;;;18.75;12.50;;;;;28.24;100.00;101513.16;5040877;28;51181;-58
2022/08/28 08:24:30;;;;;;;;;20.50;13.75;;;;;28.30;100.00;101518.22;5040414;28;50998;-58
2022/08/28 08:27:15;;;;;;;;;16.25;13.50;;;;;28.35;100.00;101517.03;5040144;28;51142;-58
2022/08/28 08:30:00;;;;;;;;;15.25;13.50;;;;;28.35;100.00;101515.16;5034323;28;51178;-58
2022/08/28 08:32:44;;;;;;;;;16.50;10.00;;;;;28.36;100.00;101516.06;5040199;28;51207;-58
2022/08/28 08:35:28;;;;;;;;;21.25;14.25;;;;;28.49;100.00;101521.59;5040478;28;51032;-59
2022/08/28 08:38:13;;;;;;;;;21.00;15.25;;;;;28.56;100.00;101520.19;5040208;28;51336;-58
2022/08/28 08:40:59;;;;;;;;;13.75;10.25;;;;;28.60;100.00;101533.56;5039925;28;51743;-58
2022/08/28 08:44:15;;;;;;;;;21.00;13.00;;;;;28.56;100.00;101518.34;5040132;28;51270;-58
2022/08/28 08:47:26;;;;;;;;;20.25;12.25;;;;;28.65;100.00;101524.16;5039628;28;51174;-58
2022/08/28 08:50:22;;;;;;;;;15.25;13.25;;;;;28.71;100.00;101526.47;5039924;28;51215;-57
2022/08/28 08:53:33;;;;;;;;;15.50;14.00;;;;;28.69;100.00;101515.63;5040153;28;51134;-59
2022/08/28 08:56:20;;;;;;;;;14.25;12.50;;;;;28.84;100.00;101521.06;5038990;28;51408;-58
2022/08/28 08:59:13;;;;;;;;;13.50;9.50;;;;;28.81;100.00;101535.84;5039830;28;51111;-59
2022/08/28 09:02:20;;;;;;;;;12.00;10.25;;;;;28.82;100.00;101540.34;5040481;28;51193;-59
2022/08/28 09:05:42;;;;;;;;;9.75;7.00;;;;;28.69;100.00;101543.00;5040135;28;51586;-58
2022/08/28 09:08:48;;;;;;;;;14.50;11.00;;;;;28.69;100.00;101559.44;5036661;28;51168;-59
2022/08/28 09:11:33;;;;;;;;;27.25;14.00;;;;;28.81;100.00;101562.38;5038986;28;51141;-60
2022/08/28 09:14:49;;;;;;;;;17.25;15.50;;;;;28.96;100.00;101564.03;5040275;28;51113;-59
2022/08/28 09:17:41;;;;;;;;;17.50;13.00;;;;;28.96;100.00;101560.44;5038614;28;51453;-58
2022/08/28 09:20:27;;;;;;;;;16.50;12.75;;;;;28.88;100.00;101566.44;5038644;28;51074;-58
2022/08/28 09:23:12;;;;;;;;;18.50;14.25;;;;;28.84;100.00;101576.72;5032028;28;51168;-58
2022/08/28 09:26:02;;;;;;;;;23.50;15.75;;;;;28.83;100.00;101571.38;5037272;28;51124;-58
2022/08/28 09:28:59;;;;;;;;;13.25;10.00;;;;;28.75;100.00;101572.75;5039000;28;51040;-58
2022/08/28 09:31:45;;;;;;;;;20.00;12.25;;;;;28.57;100.00;101577.56;5038933;28;51235;-58
2022/08/28 09:34:33;;;;;;;;;13.25;10.50;;;;;28.50;100.00;101573.47;5039283;28;51198;-58
2022/08/28 09:37:25;;;;;;;;;14.75;10.75;;;;;28.47;100.00;101584.63;5038865;28;51239;-58
2022/08/28 09:40:22;;;;;;;;;16.50;13.00;;;;;28.48;100.00;101589.13;5038834;28;51166;-59
2022/08/28 09:43:25;;;;;;;;;15.00;12.75;;;;;28.37;100.00;101578.91;5038869;28;51139;-58
2022/08/28 09:46:29;;;;;;;;;15.75;14.50;;;;;28.35;100.00;101574.50;5037674;28;51257;-57
2022/08/28 09:49:14;;;;;;;;;16.00;12.50;;;;;28.37;100.00;101583.47;5037674;28;51142;-58
2022/08/28 09:52:18;;;;;;;;;18.25;9.75;;;;;28.32;100.00;101582.91;5039072;28;51134;-58
2022/08/28 09:55:03;;;;;;;;;14.00;11.25;;;;;28.35;100.00;101580.84;5038170;28;51435;-58
2022/08/28 09:57:48;;;;;;;;;19.00;14.25;;;;;28.39;100.00;101582.41;5038572;28;51367;-57
2022/08/28 10:00:36;;;;;;;;;12.75;9.25;;;;;28.51;100.00;101588.06;5038731;28;51537;-58
2022/08/28 10:03:28;;;;;;;;;13.75;11.50;;;;;28.53;100.00;101576.03;5038726;28;51187;-58
2022/08/28 10:06:25;;;;;;;;;16.00;12.25;;;;;28.64;100.00;101578.03;5038440;28;51072;-58
2022/08/28 10:09:30;;;;;;;;;14.50;12.00;;;;;28.70;100.00;101569.41;5037030;28;51529;-58
2022/08/28 10:12:36;;;;;;;;;14.50;9.75;;;;;28.71;100.00;101578.50;5037675;28;51236;-58
2022/08/28 10:15:40;;;;;;;;;22.00;12.75;;;;;28.82;100.00;101575.09;5021289;28;51511;-58
2022/08/28 10:18:43;;;;;;;;;15.50;12.25;;;;;28.84;100.00;101571.25;5038582;28;51006;-58
2022/08/28 10:21:40;;;;;;;;;17.00;14.25;;;;;28.81;100.00;101571.44;5039649;28;51195;-56
2022/08/28 10:24:54;;;;;;;;;11.00;9.75;;;;;29.01;100.00;101567.34;5041884;28;51186;-57
2022/08/28 10:27:53;;;;;;;;;12.50;10.50;;;;;29.09;100.00;101564.09;5018376;28;51269;-58
2022/08/28 10:31:01;;;;;;;;;13.50;7.50;;;;;29.17;100.00;101563.53;5038386;28;51106;-58
2022/08/28 10:33:49;;;;;;;;;14.50;10.75;;;;;29.33;100.00;101550.56;5042939;28;51096;-57
2022/08/28 10:36:34;;;;;;;;;14.75;9.00;;;;;29.51;100.00;101542.91;5042347;28;51221;-58
2022/08/28 10:39:56;;;;;;;;;15.50;12.00;;;;;29.76;100.00;101537.50;5033096;28;51234;-58
2022/08/28 10:43:01;;;;;;;;;13.75;12.00;;;;;30.14;100.00;101551.19;5040275;28;51426;-58
2022/08/28 10:45:47;;;;;;;;;18.00;12.25;;;;;30.43;100.00;101548.13;5039465;28;51180;-58
2022/08/28 10:48:45;;;;;;;;;11.75;11.25;;;;;30.53;100.00;101541.97;5040147;28;51078;-57
2022/08/28 10:51:37;;;;;;;;;16.00;12.50;;;;;30.74;100.00;101540.31;5038174;28;51117;-58
2022/08/28 10:54:47;;;;;;;;;10.25;8.75;;;;;30.92;100.00;101540.78;5036499;28;51320;-58
2022/08/28 10:57:34;;;;;;;;;17.25;12.00;;;;;30.76;100.00;101538.34;5040757;28;51154;-58
2022/08/28 11:00:22;;;;;;;;;14.75;10.50;;;;;30.91;100.00;101550.00;5041900;28;51110;-57
2022/08/28 11:03:10;;;;;;;;;13.75;12.25;;;;;31.00;100.00;101545.69;5039875;28;51431;-58
2022/08/28 11:06:00;;;;;;;;;16.50;13.00;;;;;30.90;100.00;101541.91;5041824;28;51159;-57
2022/08/28 11:08:52;;;;;;;;;14.00;12.00;;;;;30.82;100.00;101544.34;5040199;28;51174;-58
2022/08/28 11:11:41;;;;;;;;;19.25;12.75;;;;;30.75;100.00;101535.69;5038790;28;51206;-58
2022/08/28 11:14:39;;;;;;;;;15.75;11.25;;;;;30.80;100.00;101536.22;5040357;28;51072;-57
2022/08/28 11:17:24;;;;;;;;;15.00;11.50;;;;;30.97;100.00;101534.03;5040239;28;51184;-58
2022/08/28 11:20:16;;;;;;;;;15.00;12.00;;;;;31.07;100.00;101533.19;5040086;28;51551;-58
2022/08/28 11:23:11;;;;;;;;;16.50;12.00;;;;;31.21;100.00;101528.53;5039862;28;51201;-58
2022/08/28 11:26:00;;;;;;;;;15.50;11.75;;;;;31.40;100.00;101527.06;5041401;28;51143;-58
2022/08/28 11:28:46;;;;;;;;;45.75;37.25;;;;;31.58;100.00;101521.94;5040755;28;51518;-59
2022/08/28 11:31:34;;;;;;;;;29.50;26.50;;;;;31.75;100.00;101524.22;5040234;28;51160;-58
2022/08/28 11:34:56;;;;;;;;;92.25;85.75;;;;;31.93;100.00;101519.09;5038793;28;51530;-58
2022/08/28 11:37:44;;;;;;;;;72.50;61.75;;;;;32.07;100.00;101511.56;5038611;28;51165;-58
2022/08/28 11:40:32;;;;;;;;;34.25;28.50;;;;;32.14;100.00;101508.16;5040055;28;51135;-58
2022/08/28 11:43:17;;;;;;;;;66.50;52.75;;;;;32.18;100.00;101511.53;5039300;28;51475;-56
2022/08/28 11:46:01;;;;;;;;;38.25;34.75;;;;;32.29;100.00;101503.28;5035030;28;51736;-56
2022/08/28 11:48:52;;;;;;;;;32.75;25.75;;;;;32.30;100.00;101505.03;5034083;28;51084;-58
2022/08/28 11:51:59;;;;;;;;;29.00;24.25;;;;;32.30;100.00;101498.66;5038368;28;51235;-57
2022/08/28 11:54:51;;;;;;;;;44.25;35.75;;;;;32.12;100.00;101498.28;5040800;28;51168;-57
2022/08/28 11:57:45;;;;;;;;;61.50;48.75;;;;;31.89;100.00;101495.56;5038474;28;51122;-57
2022/08/28 12:00:50;;;;;;;;;15.25;13.75;;;;;31.67;100.00;101488.19;5039232;28;51186;-58
2022/08/28 12:03:52;;;;;;;;;33.75;28.50;;;;;31.76;100.00;101489.31;5038994;28;51265;-57
2022/08/28 12:07:12;;;;;;;;;48.50;37.75;;;;;31.83;100.00;101466.69;5039488;28;51091;-57
2022/08/28 12:09:57;;;;;;;;;55.25;44.50;;;;;31.87;100.00;101470.06;5040096;28;51119;-57
2022/08/28 12:12:45;;;;;;;;;46.50;35.75;;;;;31.80;100.00;101471.56;5040702;28;51065;-58
2022/08/28 12:15:30;;;;;;;;;39.25;30.75;;;;;31.78;100.00;101466.22;5039523;28;51442;-57
2022/08/28 12:18:41;;;;;;;;;49.75;41.50;;;;;31.70;100.00;101451.31;5039478;28;51227;-57
2022/08/28 12:21:28;;;;;;;;;55.25;42.75;;;;;31.75;100.00;101452.69;5039886;28;51014;-56
2022/08/28 12:24:21;;;;;;;;;24.25;21.50;;;;;31.71;100.00;101442.06;5037850;28;51183;-58
2022/08/28 12:27:07;;;;;;;;;18.25;15.50;;;;;31.70;100.00;101448.56;5035629;28;51270;-57
2022/08/28 12:29:59;;;;;;;;;17.75;15.75;;;;;31.55;100.00;101436.94;5039909;28;51151;-58
2022/08/28 12:32:49;;;;;;;;;33.25;28.75;;;;;31.49;100.00;101443.81;5036913;28;51161;-58
2022/08/28 12:35:34;;;;;;;;;20.75;17.00;;;;;31.44;100.00;101433.19;5037871;28;51482;-58
2022/08/28 12:38:20;;;;;;;;;13.25;12.00;;;;;31.37;100.00;101420.94;5038402;28;51295;-58
2022/08/28 12:41:13;;;;;;;;;20.75;19.50;;;;;31.08;100.00;101426.88;5038790;28;51324;-57
2022/08/28 12:43:59;;;;;;;;;17.25;12.50;;;;;31.07;100.00;101423.25;5039602;28;51132;-58
2022/08/28 12:46:43;;;;;;;;;15.50;12.00;;;;;31.04;100.00;101418.00;5038800;28;51412;-58
2022/08/28 12:49:36;;;;;;;;;15.25;15.25;;;;;30.84;100.00;101405.88;5037712;28;51115;-58
2022/08/28 12:52:23;;;;;;;;;21.75;14.75;;;;;30.68;100.00;101417.19;5038775;28;51402;-57
2022/08/28 12:55:08;;;;;;;;;16.00;8.75;;;;;30.78;100.00;101400.00;5037920;28;51236;-57